Time;durP1;ratioP1;P1;durP2;ratioP2;P2;SDS_P1;SDS_P2;PMS_P1;PMS_P2;Temp;Humidity;BMP_temperature;BMP_pressure;BME280_temperature;BME280_humidity;BME280_pressure;Samples;Min_cycle;Max_cycle;Signal;HPM_P1;HPM_P2
2023/05/28 00:00:10;;;;;;;10.20;3.38;;;;;;;;;;5016960;28;20021;-79
2023/05/28 00:02:37;;;;;;;5.30;2.58;;;;;;;;;;5017586;28;20053;-79
2023/05/28 00:05:05;;;;;;;4.50;2.47;;;;;;;;;;5001049;28;20040;-77
2023/05/28 00:07:31;;;;;;;7.28;2.63;;;;;;;;;;5000861;28;20475;-80
2023/05/28 00:09:57;;;;;;;7.95;2.90;;;;;;;;;;5017036;28;20033;-79
2023/05/28 00:12:22;;;;;;;6.38;2.72;;;;;;;;;;5016946;28;20021;-79
2023/05/28 00:14:49;;;;;;;10.02;3.05;;;;;;;;;;5016978;28;20037;-79
2023/05/28 00:17:15;;;;;;;12.52;2.88;;;;;;;;;;5016878;28;20028;-79
2023/05/28 00:19:41;;;;;;;7.93;2.47;;;;;;;;;;5016732;28;20044;-79
2023/05/28 00:22:07;;;;;;;7.40;2.78;;;;;;;;;;5033877;28;20492;-79
2023/05/28 00:24:32;;;;;;;7.32;2.80;;;;;;;;;;5016559;28;20064;-79
2023/05/28 00:26:57;;;;;;;8.10;2.80;;;;;;;;;;5016504;28;20040;-79
2023/05/28 00:29:26;;;;;;;7.03;2.92;;;;;;;;;;5016346;28;20034;-79
2023/05/28 00:31:54;;;;;;;6.95;2.72;;;;;;;;;;5016952;28;20037;-79
2023/05/28 00:34:20;;;;;;;4.82;2.70;;;;;;;;;;4984368;28;20084;-79
2023/05/28 00:36:45;;;;;;;6.68;2.60;;;;;;;;;;5034241;28;20031;-79
2023/05/28 00:39:11;;;;;;;12.32;2.67;;;;;;;;;;5016378;28;20026;-78
2023/05/28 00:41:36;;;;;;;6.50;2.70;;;;;;;;;;5034101;28;20040;-78
2023/05/28 00:44:03;;;;;;;5.75;2.78;;;;;;;;;;4999869;28;20400;-78
2023/05/28 00:46:28;;;;;;;6.65;2.97;;;;;;;;;;4999767;28;20032;-78
2023/05/28 00:48:54;;;;;;;4.75;2.28;;;;;;;;;;5015906;28;20116;-78
2023/05/28 00:51:19;;;;;;;5.80;2.65;;;;;;;;;;5015920;28;20040;-78
2023/05/28 00:53:44;;;;;;;6.38;2.92;;;;;;;;;;4999540;28;20029;-79
2023/05/28 00:56:11;;;;;;;4.60;2.30;;;;;;;;;;5016281;28;20033;-80
2023/05/28 00:58:39;;;;;;;4.93;2.70;;;;;;;;;;5015978;28;20021;-79
2023/05/28 01:01:09;;;;;;;8.00;2.70;;;;;;;;;;5016405;28;20503;-79
2023/05/28 01:03:38;;;;;;;8.88;3.10;;;;;;;;;;5000269;28;20469;-79
2023/05/28 01:06:09;;;;;;;6.07;2.60;;;;;;;;;;5016295;28;20022;-79
2023/05/28 01:08:36;;;;;;;3.30;2.00;;;;;;;;;;5016318;28;20052;-79
2023/05/28 01:11:01;;;;;;;6.00;2.80;;;;;;;;;;5015739;28;20468;-79
2023/05/28 01:13:26;;;;;;;5.55;2.50;;;;;;;;;;5033382;28;20040;-79
2023/05/28 01:15:52;;;;;;;4.78;2.60;;;;;;;;;;4999266;28;20391;-79
2023/05/28 01:18:18;;;;;;;4.25;2.53;;;;;;;;;;4999575;28;20365;-79
2023/05/28 01:20:43;;;;;;;6.45;2.47;;;;;;;;;;5015537;28;20029;-79
2023/05/28 01:23:11;;;;;;;6.82;2.80;;;;;;;;;;5033459;28;20035;-78
2023/05/28 01:25:39;;;;;;;4.63;2.50;;;;;;;;;;5015748;28;20029;-79
2023/05/28 01:28:14;;;;;;;5.05;2.90;;;;;;;;;;4999777;28;20095;-79
2023/05/28 01:30:40;;;;;;;5.32;2.15;;;;;;;;;;5015410;28;20025;-79
2023/05/28 01:33:06;;;;;;;6.63;2.55;;;;;;;;;;5032814;28;20026;-80
2023/05/28 01:35:32;;;;;;;5.13;2.42;;;;;;;;;;5015297;28;20033;-79
2023/05/28 01:37:59;;;;;;;9.90;2.55;;;;;;;;;;5015678;28;20037;-79
2023/05/28 01:40:25;;;;;;;6.35;2.78;;;;;;;;;;5015267;28;20060;-79
2023/05/28 01:42:51;;;;;;;7.20;3.05;;;;;;;;;;5015493;28;20044;-79
2023/05/28 01:45:17;;;;;;;4.82;2.50;;;;;;;;;;5015543;28;20025;-79
2023/05/28 01:47:43;;;;;;;4.53;2.60;;;;;;;;;;5015255;28;20029;-79
2023/05/28 01:50:09;;;;;;;7.05;2.40;;;;;;;;;;5015621;28;20448;-79
2023/05/28 01:52:34;;;;;;;5.25;2.60;;;;;;;;;;5015327;28;20041;-79
2023/05/28 01:55:00;;;;;;;8.73;2.30;;;;;;;;;;5015203;28;20096;-78
2023/05/28 01:57:25;;;;;;;6.25;2.67;;;;;;;;;;5015282;28;20496;-79
2023/05/28 01:59:51;;;;;;;5.95;2.40;;;;;;;;;;4999268;28;20030;-78
2023/05/28 02:02:16;;;;;;;7.07;2.53;;;;;;;;;;5015284;28;20029;-79
2023/05/28 02:04:42;;;;;;;5.45;2.55;;;;;;;;;;5015464;28;20060;-78
2023/05/28 02:07:07;;;;;;;7.00;2.63;;;;;;;;;;5032780;28;20511;-77
2023/05/28 02:09:32;;;;;;;4.18;2.30;;;;;;;;;;5015103;28;20072;-78
2023/05/28 02:12:02;;;;;;;6.80;2.53;;;;;;;;;;5014960;28;20373;-78
2023/05/28 02:14:28;;;;;;;5.50;2.40;;;;;;;;;;5032954;28;20037;-78
2023/05/28 02:16:53;;;;;;;3.20;2.15;;;;;;;;;;5015384;28;20109;-79
2023/05/28 02:19:19;;;;;;;6.05;2.40;;;;;;;;;;5015180;28;20021;-77
2023/05/28 02:21:45;;;;;;;4.53;2.42;;;;;;;;;;5032895;28;20053;-80
2023/05/28 02:24:11;;;;;;;4.82;2.28;;;;;;;;;;5014798;28;20029;-80
2023/05/28 02:26:36;;;;;;;6.15;2.08;;;;;;;;;;5015086;28;20033;-79
2023/05/28 02:29:01;;;;;;;5.75;2.47;;;;;;;;;;4998452;28;20103;-78
2023/05/28 02:31:27;;;;;;;4.25;2.38;;;;;;;;;;5032497;28;20396;-78
2023/05/28 02:33:52;;;;;;;4.63;2.38;;;;;;;;;;5014963;28;20037;-79
2023/05/28 02:36:18;;;;;;;4.95;2.65;;;;;;;;;;5032538;28;20113;-79
2023/05/28 02:38:43;;;;;;;6.88;2.53;;;;;;;;;;5032573;28;20485;-79
2023/05/28 02:41:09;;;;;;;6.05;2.80;;;;;;;;;;5014756;28;20045;-79
2023/05/28 02:43:35;;;;;;;6.43;2.80;;;;;;;;;;4998454;28;20032;-79
2023/05/28 02:46:00;;;;;;;4.63;2.13;;;;;;;;;;5016520;28;20033;-79
2023/05/28 02:48:26;;;;;;;4.68;2.58;;;;;;;;;;5037309;28;20389;-79
2023/05/28 02:50:51;;;;;;;5.22;2.47;;;;;;;;;;5039569;28;20048;-79
2023/05/28 02:53:19;;;;;;;5.05;2.50;;;;;;;;;;5031469;28;20037;-79
2023/05/28 02:55:45;;;;;;;5.05;2.45;;;;;;;;;;5006003;28;20084;-79
2023/05/28 02:58:10;;;;;;;4.75;2.45;;;;;;;;;;5039705;28;20021;-78
2023/05/28 03:00:36;;;;;;;7.15;2.60;;;;;;;;;;5005411;28;20030;-79
2023/05/28 03:03:01;;;;;;;4.68;2.28;;;;;;;;;;5036948;28;20033;-79
2023/05/28 03:05:27;;;;;;;4.68;2.40;;;;;;;;;;5037550;28;20045;-79
2023/05/28 03:07:52;;;;;;;5.90;2.55;;;;;;;;;;5036713;28;20029;-79
2023/05/28 03:10:17;;;;;;;5.63;2.60;;;;;;;;;;5036964;28;20380;-79
2023/05/28 03:12:43;;;;;;;7.32;2.45;;;;;;;;;;5003208;28;20388;-79
2023/05/28 03:15:09;;;;;;;4.00;2.33;;;;;;;;;;5018441;28;20817;-79
2023/05/28 03:17:34;;;;;;;3.95;2.22;;;;;;;;;;5002186;28;20036;-79
2023/05/28 03:19:59;;;;;;;5.43;2.47;;;;;;;;;;5035989;28;20034;-79
2023/05/28 03:22:25;;;;;;;4.40;2.35;;;;;;;;;;5035959;28;20059;-79
2023/05/28 03:24:51;;;;;;;3.22;2.10;;;;;;;;;;5018327;28;20030;-78
2023/05/28 03:27:16;;;;;;;4.68;2.10;;;;;;;;;;5035363;28;20043;-82
2023/05/28 03:29:41;;;;;;;5.82;2.38;;;;;;;;;;5017728;28;20463;-81
2023/05/28 03:32:07;;;;;;;4.95;2.40;;;;;;;;;;5035365;28;20049;-79
2023/05/28 03:34:33;;;;;;;4.90;2.40;;;;;;;;;;5036582;28;20033;-79
2023/05/28 03:36:59;;;;;;;4.63;2.55;;;;;;;;;;5017637;28;20033;-79
2023/05/28 03:39:24;;;;;;;5.00;2.28;;;;;;;;;;5035117;28;20060;-79
2023/05/28 03:41:50;;;;;;;4.75;2.42;;;;;;;;;;5017878;28;20026;-79
2023/05/28 03:44:18;;;;;;;3.17;2.30;;;;;;;;;;5017882;28;20428;-78
2023/05/28 03:46:43;;;;;;;4.82;2.38;;;;;;;;;;5018254;28;20083;-78
2023/05/28 03:49:09;;;;;;;4.55;2.30;;;;;;;;;;5017511;28;20037;-81
2023/05/28 03:51:34;;;;;;;4.45;2.22;;;;;;;;;;5017449;28;20044;-78
2023/05/28 03:54:00;;;;;;;4.80;2.47;;;;;;;;;;5000851;28;20037;-78
2023/05/28 03:56:26;;;;;;;4.32;2.20;;;;;;;;;;5017026;28;20033;-78
2023/05/28 03:58:52;;;;;;;3.47;2.17;;;;;;;;;;5016483;28;20103;-80
2023/05/28 04:01:18;;;;;;;5.05;2.30;;;;;;;;;;5017358;28;20042;-78
2023/05/28 04:03:43;;;;;;;5.50;2.30;;;;;;;;;;5035192;28;20033;-81
2023/05/28 04:06:08;;;;;;;3.70;2.20;;;;;;;;;;5000984;28;20036;-79
2023/05/28 04:08:34;;;;;;;3.67;2.08;;;;;;;;;;5037988;28;20420;-79
2023/05/28 04:10:59;;;;;;;4.68;2.38;;;;;;;;;;4989012;28;20108;-79
2023/05/28 04:13:25;;;;;;;5.00;2.55;;;;;;;;;;5038774;28;20116;-79
2023/05/28 04:15:51;;;;;;;4.00;2.25;;;;;;;;;;5020018;28;20056;-80
2023/05/28 04:18:16;;;;;;;5.05;2.42;;;;;;;;;;5035579;28;20492;-80
2023/05/28 04:20:42;;;;;;;6.05;2.60;;;;;;;;;;4984609;28;20029;-80
2023/05/28 04:23:08;;;;;;;3.42;2.10;;;;;;;;;;5001626;28;20185;-79
2023/05/28 04:25:33;;;;;;;5.10;2.30;;;;;;;;;;5000683;28;20026;-78
2023/05/28 04:28:00;;;;;;;3.60;2.40;;;;;;;;;;5016733;28;20041;-80
2023/05/28 04:30:26;;;;;;;4.57;2.45;;;;;;;;;;5000597;28;20124;-78
2023/05/28 04:32:51;;;;;;;4.07;2.38;;;;;;;;;;5016647;28;20482;-79
2023/05/28 04:35:17;;;;;;;3.53;2.45;;;;;;;;;;5035221;28;20148;-79
2023/05/28 04:37:44;;;;;;;5.35;2.22;;;;;;;;;;5034209;28;20041;-80
2023/05/28 04:40:13;;;;;;;4.40;2.38;;;;;;;;;;5034236;28;20128;-80
2023/05/28 04:42:40;;;;;;;3.42;2.33;;;;;;;;;;5034413;28;20029;-78
2023/05/28 04:45:07;;;;;;;6.18;2.22;;;;;;;;;;5016810;28;20064;-81
2023/05/28 04:47:34;;;;;;;4.35;2.30;;;;;;;;;;5016785;28;20041;-80
2023/05/28 04:50:00;;;;;;;5.13;2.30;;;;;;;;;;5016428;28;20076;-80
2023/05/28 04:52:26;;;;;;;5.65;2.90;;;;;;;;;;5000343;28;20400;-79
2023/05/28 04:54:51;;;;;;;4.03;2.38;;;;;;;;;;5034063;28;20032;-80
2023/05/28 04:57:17;;;;;;;4.75;2.30;;;;;;;;;;5016752;28;20041;-79
2023/05/28 04:59:43;;;;;;;4.63;2.35;;;;;;;;;;5034074;28;20029;-79
2023/05/28 05:02:08;;;;;;;5.15;2.90;;;;;;;;;;5016238;28;20384;-79
2023/05/28 05:04:34;;;;;;;7.28;2.45;;;;;;;;;;5034460;28;20034;-79
2023/05/28 05:06:59;;;;;;;4.53;2.58;;;;;;;;;;4999612;28;20029;-79
2023/05/28 05:09:27;;;;;;;4.75;2.50;;;;;;;;;;4999249;28;20135;-80
2023/05/28 05:11:52;;;;;;;2.55;2.17;;;;;;;;;;5015896;28;20025;-81
2023/05/28 05:14:17;;;;;;;5.63;2.60;;;;;;;;;;5015945;28;20040;-81
2023/05/28 05:16:43;;;;;;;3.38;2.20;;;;;;;;;;5033735;28;20025;-80
2023/05/28 05:19:08;;;;;;;4.82;2.45;;;;;;;;;;5033649;28;20424;-80
2023/05/28 05:21:33;;;;;;;5.60;2.05;;;;;;;;;;5033872;28;20036;-80
2023/05/28 05:23:59;;;;;;;7.20;2.47;;;;;;;;;;4999311;28;20088;-79
2023/05/28 05:26:25;;;;;;;5.68;2.13;;;;;;;;;;4999514;28;20500;-79
2023/05/28 05:28:51;;;;;;;3.67;2.20;;;;;;;;;;5033625;28;20021;-79
2023/05/28 05:31:16;;;;;;;4.85;2.45;;;;;;;;;;5015900;28;20100;-79
2023/05/28 05:33:41;;;;;;;3.25;2.28;;;;;;;;;;5015947;28;20420;-80
2023/05/28 05:36:13;;;;;;;4.15;2.40;;;;;;;;;;5015659;28;20029;-80
2023/05/28 05:38:38;;;;;;;3.15;2.13;;;;;;;;;;5000090;28;20030;-80
2023/05/28 05:41:03;;;;;;;3.25;2.55;;;;;;;;;;4999009;28;20111;-78
2023/05/28 05:43:29;;;;;;;4.30;2.30;;;;;;;;;;5033328;28;20037;-79
2023/05/28 05:45:54;;;;;;;4.25;2.30;;;;;;;;;;5033221;28;20025;-78
2023/05/28 05:48:20;;;;;;;4.53;2.60;;;;;;;;;;4998952;28;20021;-79
2023/05/28 05:50:57;;;;;;;3.67;2.17;;;;;;;;;;5015714;28;20045;-79
2023/05/28 05:53:23;;;;;;;5.15;2.33;;;;;;;;;;5000670;28;20030;-79
2023/05/28 05:55:49;;;;;;;4.78;2.30;;;;;;;;;;5015492;28;20113;-79
2023/05/28 05:58:15;;;;;;;4.38;2.60;;;;;;;;;;4999141;28;20077;-77
2023/05/28 06:00:41;;;;;;;8.50;2.63;;;;;;;;;;5015509;28;20030;-77
2023/05/28 06:03:07;;;;;;;6.28;2.22;;;;;;;;;;4999907;28;20041;-78
2023/05/28 06:05:36;;;;;;;3.75;2.15;;;;;;;;;;4999915;28;20037;-77
2023/05/28 06:08:05;;;;;;;5.85;2.42;;;;;;;;;;4998978;28;20484;-78
2023/05/28 06:10:30;;;;;;;5.05;2.15;;;;;;;;;;5015339;28;20032;-77
2023/05/28 06:12:55;;;;;;;4.45;2.70;;;;;;;;;;5015686;28;20029;-79
2023/05/28 06:15:21;;;;;;;3.92;2.45;;;;;;;;;;4982673;28;20029;-78
2023/05/28 06:17:47;;;;;;;6.70;2.70;;;;;;;;;;4998925;28;20121;-78
2023/05/28 06:20:13;;;;;;;4.57;2.60;;;;;;;;;;5015575;28;20452;-79
2023/05/28 06:22:39;;;;;;;15.55;4.13;;;;;;;;;;5019238;28;20033;-79
2023/05/28 06:25:06;;;;;;;5.15;2.95;;;;;;;;;;5037236;28;20388;-78
2023/05/28 06:27:32;;;;;;;10.85;3.00;;;;;;;;;;5002905;28;20036;-78
2023/05/28 06:29:57;;;;;;;8.05;2.85;;;;;;;;;;5018823;28;20492;-78
2023/05/28 06:32:23;;;;;;;6.25;2.95;;;;;;;;;;5018694;28;20169;-78
2023/05/28 06:34:48;;;;;;;6.40;2.75;;;;;;;;;;5003014;28;20030;-78
2023/05/28 06:37:13;;;;;;;9.00;3.33;;;;;;;;;;5019112;28;20040;-78
2023/05/28 06:39:39;;;;;;;6.93;2.63;;;;;;;;;;5018702;28;20045;-78
2023/05/28 06:42:05;;;;;;;7.78;2.90;;;;;;;;;;5019045;28;20417;-78
2023/05/28 06:44:31;;;;;;;9.73;2.70;;;;;;;;;;5002442;28;20034;-77
2023/05/28 06:46:57;;;;;;;4.88;2.85;;;;;;;;;;5036643;28;20472;-77
2023/05/28 06:49:22;;;;;;;9.75;3.20;;;;;;;;;;5018489;28;20040;-78
2023/05/28 06:51:48;;;;;;;8.90;3.03;;;;;;;;;;5018504;28;20483;-78
2023/05/28 06:54:13;;;;;;;4.97;2.70;;;;;;;;;;5036337;28;20037;-77
2023/05/28 06:56:39;;;;;;;7.68;2.97;;;;;;;;;;5018519;28;20107;-78
2023/05/28 06:59:04;;;;;;;11.85;3.72;;;;;;;;;;5036190;28;20030;-78
2023/05/28 07:01:30;;;;;;;7.45;2.58;;;;;;;;;;5002047;28;20084;-79
2023/05/28 07:03:55;;;;;;;7.25;3.60;;;;;;;;;;5002229;28;20354;-78
2023/05/28 07:06:21;;;;;;;5.80;2.85;;;;;;;;;;5001811;28;20378;-78
2023/05/28 07:08:46;;;;;;;8.23;3.05;;;;;;;;;;5018117;28;20646;-78
2023/05/28 07:11:12;;;;;;;8.10;2.95;;;;;;;;;;5018100;28;20543;-79
2023/05/28 07:13:38;;;;;;;10.68;3.83;;;;;;;;;;5018634;28;20052;-79
2023/05/28 07:16:05;;;;;;;11.15;3.78;;;;;;;;;;5018509;28;20065;-79
2023/05/28 07:18:30;;;;;;;8.57;3.30;;;;;;;;;;5018261;28;20400;-79
2023/05/28 07:20:55;;;;;;;7.07;3.05;;;;;;;;;;5017963;28;20033;-79
2023/05/28 07:23:21;;;;;;;15.15;3.00;;;;;;;;;;5035961;28;20084;-79
2023/05/28 07:25:46;;;;;;;7.72;3.17;;;;;;;;;;5017885;28;20057;-79
2023/05/28 07:28:11;;;;;;;6.97;3.50;;;;;;;;;;5035753;28;20038;-79
2023/05/28 07:30:37;;;;;;;6.05;2.83;;;;;;;;;;5035917;28;20033;-79
2023/05/28 07:33:02;;;;;;;11.13;2.80;;;;;;;;;;5017532;28;20084;-79
2023/05/28 07:35:28;;;;;;;8.27;3.10;;;;;;;;;;4990040;28;20038;-81
2023/05/28 07:37:54;;;;;;;6.20;3.03;;;;;;;;;;4981308;28;20057;-78
2023/05/28 07:40:19;;;;;;;6.88;2.85;;;;;;;;;;4981253;28;20053;-78
2023/05/28 07:42:45;;;;;;;8.00;2.70;;;;;;;;;;4981195;28;20492;-78
2023/05/28 07:45:10;;;;;;;6.57;2.63;;;;;;;;;;4981187;28;20120;-78
2023/05/28 07:47:38;;;;;;;8.13;3.22;;;;;;;;;;5014809;28;20036;-77
2023/05/28 07:50:04;;;;;;;7.28;3.00;;;;;;;;;;4997588;28;20496;-80
2023/05/28 07:52:30;;;;;;;12.05;3.05;;;;;;;;;;4997534;28;20033;-78
2023/05/28 07:54:58;;;;;;;14.50;3.33;;;;;;;;;;4997284;28;20026;-81
2023/05/28 07:57:24;;;;;;;15.98;4.78;;;;;;;;;;4997570;28;20021;-83
2023/05/28 07:59:49;;;;;;;15.98;4.03;;;;;;;;;;5015104;28;20033;-83
2023/05/28 08:02:15;;;;;;;13.85;3.92;;;;;;;;;;4997766;28;20026;-83
2023/05/28 08:04:40;;;;;;;15.98;3.85;;;;;;;;;;4996983;28;20045;-82
2023/05/28 08:07:06;;;;;;;14.48;4.13;;;;;;;;;;4998877;28;20026;-82
2023/05/28 08:09:31;;;;;;;12.43;4.35;;;;;;;;;;5017431;28;20029;-81
2023/05/28 08:11:57;;;;;;;14.40;4.15;;;;;;;;;;4997355;28;20045;-81
2023/05/28 08:14:23;;;;;;;8.80;3.60;;;;;;;;;;4981128;28;20034;-83
2023/05/28 08:16:48;;;;;;;11.38;4.28;;;;;;;;;;4980842;28;20025;-83
2023/05/28 08:19:13;;;;;;;12.02;3.90;;;;;;;;;;4996923;28;20449;-82
2023/05/28 08:21:39;;;;;;;9.02;3.60;;;;;;;;;;4996960;28;20441;-80
2023/05/28 08:24:05;;;;;;;10.98;3.65;;;;;;;;;;4997586;28;20065;-80
2023/05/28 08:26:30;;;;;;;9.95;3.65;;;;;;;;;;4983227;28;20037;-80
2023/05/28 08:28:56;;;;;;;9.98;3.63;;;;;;;;;;4998664;28;20026;-79
2023/05/28 08:31:22;;;;;;;9.23;3.97;;;;;;;;;;5014314;28;20062;-81
2023/05/28 08:33:47;;;;;;;9.50;3.38;;;;;;;;;;4996926;28;20045;-80
2023/05/28 08:36:12;;;;;;;10.45;3.83;;;;;;;;;;5012361;28;20188;-80
2023/05/28 08:38:38;;;;;;;8.77;3.42;;;;;;;;;;4998055;28;20030;-78
2023/05/28 08:41:05;;;;;;;7.80;3.13;;;;;;;;;;5015162;28;20046;-79
2023/05/28 08:43:30;;;;;;;7.40;3.08;;;;;;;;;;4990020;28;20034;-79
2023/05/28 08:45:56;;;;;;;7.10;2.97;;;;;;;;;;4999221;28;20381;-79
2023/05/28 08:48:21;;;;;;;8.75;3.00;;;;;;;;;;5000862;28;20509;-79
2023/05/28 08:50:48;;;;;;;9.02;3.30;;;;;;;;;;5016203;28;20322;-78
2023/05/28 08:53:19;;;;;;;5.85;3.05;;;;;;;;;;4996471;28;20041;-77
2023/05/28 08:55:45;;;;;;;14.15;3.28;;;;;;;;;;4996445;28;20112;-79
2023/05/28 08:58:10;;;;;;;52.67;8.70;;;;;;;;;;4996587;28;20106;-80
2023/05/28 09:00:37;;;;;;;30.15;7.70;;;;;;;;;;4997683;28;20105;-80
2023/05/28 09:03:07;;;;;;;35.70;8.52;;;;;;;;;;4998191;28;20026;-79
2023/05/28 09:05:38;;;;;;;40.30;9.25;;;;;;;;;;4980165;28;20385;-79
2023/05/28 09:08:09;;;;;;;37.08;9.02;;;;;;;;;;4997952;28;20053;-78
2023/05/28 09:10:38;;;;;;;27.80;7.28;;;;;;;;;;4997387;28;20025;-80
2023/05/28 09:13:06;;;;;;;29.23;7.10;;;;;;;;;;4980055;28;20573;-79
2023/05/28 09:15:34;;;;;;;23.65;7.75;;;;;;;;;;4976101;28;20485;-78
2023/05/28 09:18:00;;;;;;;23.92;6.85;;;;;;;;;;5015179;28;20022;-78
2023/05/28 09:20:26;;;;;;;27.38;7.68;;;;;;;;;;5000176;28;20021;-79
2023/05/28 09:23:00;;;;;;;24.25;6.43;;;;;;;;;;5001861;28;20041;-78
2023/05/28 09:25:28;;;;;;;19.05;6.85;;;;;;;;;;4981915;28;20021;-78
2023/05/28 09:27:55;;;;;;;26.05;6.60;;;;;;;;;;4981333;28;20056;-78
2023/05/28 09:30:22;;;;;;;18.52;6.30;;;;;;;;;;4981837;28;20034;-79
2023/05/28 09:33:00;;;;;;;19.75;6.07;;;;;;;;;;4998493;28;20543;-78
2023/05/28 09:35:26;;;;;;;20.73;5.55;;;;;;;;;;4997491;28;20746;-79
2023/05/28 09:38:10;;;;;;;18.67;5.68;;;;;;;;;;4982176;28;20149;-80
2023/05/28 09:40:42;;;;;;;15.82;5.00;;;;;;;;;;5015606;28;20037;-78
2023/05/28 09:43:09;;;;;;;13.85;4.60;;;;;;;;;;4981196;28;20038;-78
2023/05/28 09:45:35;;;;;;;13.27;4.97;;;;;;;;;;4996985;28;20032;-79
2023/05/28 09:48:00;;;;;;;12.60;4.20;;;;;;;;;;4999501;28;20094;-80
2023/05/28 09:50:26;;;;;;;13.10;4.97;;;;;;;;;;4988559;28;20120;-82
2023/05/28 09:52:54;;;;;;;15.07;4.85;;;;;;;;;;5011185;28;20026;-79
2023/05/28 09:55:23;;;;;;;11.30;4.18;;;;;;;;;;5001089;28;20169;-79
2023/05/28 09:58:05;;;;;;;10.38;4.03;;;;;;;;;;5018924;28;20576;-79
2023/05/28 10:00:32;;;;;;;10.45;4.05;;;;;;;;;;5000856;28;20030;-79
2023/05/28 10:03:15;;;;;;;10.18;3.40;;;;;;;;;;5018421;28;20036;-79
2023/05/28 10:05:43;;;;;;;9.98;4.07;;;;;;;;;;5001589;28;20157;-82
2023/05/28 10:08:11;;;;;;;9.52;3.40;;;;;;;;;;5017306;28;20037;-81
2023/05/28 10:10:39;;;;;;;9.77;3.78;;;;;;;;;;5007261;28;20035;-80
2023/05/28 10:13:07;;;;;;;8.20;3.38;;;;;;;;;;4993174;28;20032;-81
2023/05/28 10:15:33;;;;;;;8.48;3.20;;;;;;;;;;5017929;28;20112;-80
2023/05/28 10:17:59;;;;;;;8.95;3.28;;;;;;;;;;4999799;28;20033;-79
2023/05/28 10:20:24;;;;;;;7.20;3.15;;;;;;;;;;4984216;28;20033;-81
2023/05/28 10:22:50;;;;;;;11.32;3.63;;;;;;;;;;4999854;28;20038;-80
2023/05/28 10:25:16;;;;;;;9.25;4.00;;;;;;;;;;4983506;28;20037;-80
2023/05/28 10:27:45;;;;;;;8.93;3.55;;;;;;;;;;4991138;28;20029;-80
2023/05/28 10:30:12;;;;;;;8.07;3.45;;;;;;;;;;5008000;28;20053;-79
2023/05/28 10:32:40;;;;;;;13.68;3.40;;;;;;;;;;5010163;28;20025;-78
2023/05/28 10:35:06;;;;;;;7.20;3.28;;;;;;;;;;5010239;28;20030;-79
2023/05/28 10:37:32;;;;;;;11.82;3.78;;;;;;;;;;4991586;28;20397;-78
2023/05/28 10:39:59;;;;;;;11.13;3.58;;;;;;;;;;5004313;28;20054;-79
2023/05/28 10:42:25;;;;;;;11.57;4.15;;;;;;;;;;5006742;28;20036;-79
2023/05/28 10:44:59;;;;;;;14.43;4.35;;;;;;;;;;5009070;28;20038;-79
2023/05/28 10:47:36;;;;;;;14.25;4.57;;;;;;;;;;5008777;28;20038;-79
2023/05/28 10:50:07;;;;;;;11.70;4.40;;;;;;;;;;4993615;28;20026;-79
2023/05/28 10:52:32;;;;;;;11.85;4.45;;;;;;;;;;4977672;28;20026;-79
2023/05/28 10:55:02;;;;;;;12.43;4.28;;;;;;;;;;4981396;28;20037;-79
2023/05/28 10:57:44;;;;;;;13.50;4.07;;;;;;;;;;4981231;28;20086;-78
2023/05/28 11:00:13;;;;;;;10.35;4.00;;;;;;;;;;4981126;28;20117;-79
2023/05/28 11:02:42;;;;;;;7.78;3.85;;;;;;;;;;4980436;28;20035;-78
2023/05/28 11:05:08;;;;;;;8.30;4.00;;;;;;;;;;4979480;28;20448;-79
2023/05/28 11:07:39;;;;;;;10.90;3.97;;;;;;;;;;4962741;28;20031;-80
2023/05/28 11:10:07;;;;;;;9.82;3.55;;;;;;;;;;4963006;28;20054;-79
2023/05/28 11:12:36;;;;;;;8.80;3.53;;;;;;;;;;4979232;28;20499;-79
2023/05/28 11:15:03;;;;;;;8.05;3.58;;;;;;;;;;4979589;28;20030;-80
2023/05/28 11:17:28;;;;;;;8.70;3.80;;;;;;;;;;4962766;28;20046;-79
2023/05/28 11:19:54;;;;;;;9.77;3.55;;;;;;;;;;4968732;28;20073;-79
2023/05/28 11:22:20;;;;;;;10.88;3.45;;;;;;;;;;4974396;28;20026;-79
2023/05/28 11:24:58;;;;;;;8.80;3.33;;;;;;;;;;4985928;28;20051;-79
2023/05/28 11:27:26;;;;;;;7.15;3.10;;;;;;;;;;4982408;28;20041;-81
2023/05/28 11:29:53;;;;;;;10.52;3.47;;;;;;;;;;4982194;28;20117;-79
2023/05/28 11:32:20;;;;;;;5.80;2.78;;;;;;;;;;4982609;28;20058;-80
2023/05/28 11:34:47;;;;;;;7.18;3.38;;;;;;;;;;4997935;28;20057;-82
2023/05/28 11:37:13;;;;;;;8.00;3.08;;;;;;;;;;4981502;28;20026;-81
2023/05/28 11:39:39;;;;;;;5.97;2.80;;;;;;;;;;5019130;28;20100;-80
2023/05/28 11:42:08;;;;;;;7.15;3.03;;;;;;;;;;5017709;28;20029;-79
2023/05/28 11:44:33;;;;;;;8.25;2.97;;;;;;;;;;5034888;28;20107;-80
2023/05/28 11:46:58;;;;;;;6.85;2.80;;;;;;;;;;5017320;28;20440;-79
2023/05/28 11:49:24;;;;;;;6.93;2.72;;;;;;;;;;5001519;28;20043;-80
2023/05/28 11:51:51;;;;;;;6.43;3.17;;;;;;;;;;5001608;28;20034;-78
2023/05/28 11:54:38;;;;;;;5.05;2.83;;;;;;;;;;5018214;28;20029;-81
2023/05/28 11:57:33;;;;;;;4.43;2.93;;;;;;;;;;5005171;28;20073;-79
2023/05/28 11:59:59;;;;;;;6.93;2.90;;;;;;;;;;5036104;28;20033;-82
2023/05/28 12:02:25;;;;;;;5.45;2.90;;;;;;;;;;5033896;28;20022;-80
2023/05/28 12:04:58;;;;;;;5.28;2.95;;;;;;;;;;5020144;28;20038;-79
2023/05/28 12:07:30;;;;;;;5.63;2.78;;;;;;;;;;5001180;28;20144;-79
2023/05/28 12:10:03;;;;;;;6.00;2.75;;;;;;;;;;5011742;28;20109;-80
2023/05/28 12:12:31;;;;;;;6.47;2.83;;;;;;;;;;5008613;28;20042;-80
2023/05/28 12:15:04;;;;;;;7.53;3.33;;;;;;;;;;4995952;28;20022;-78
2023/05/28 12:17:36;;;;;;;7.10;2.95;;;;;;;;;;5041269;28;20379;-80
2023/05/28 12:20:06;;;;;;;5.40;2.75;;;;;;;;;;5037266;28;20108;-78
2023/05/28 12:22:32;;;;;;;6.72;2.88;;;;;;;;;;5020380;28;20051;-79
2023/05/28 12:24:58;;;;;;;7.03;3.20;;;;;;;;;;5020270;28;20036;-79
2023/05/28 12:27:23;;;;;;;9.88;2.97;;;;;;;;;;5054688;28;20025;-79
2023/05/28 12:29:48;;;;;;;11.68;3.78;;;;;;;;;;5020509;28;20061;-80
2023/05/28 12:32:14;;;;;;;8.30;3.33;;;;;;;;;;5054932;28;20033;-79
2023/05/28 12:34:40;;;;;;;8.77;3.20;;;;;;;;;;5037656;28;20056;-80
2023/05/28 12:37:05;;;;;;;14.65;3.85;;;;;;;;;;5037436;28;20033;-81
2023/05/28 12:39:31;;;;;;;11.55;5.07;;;;;;;;;;5036371;28;20435;-80
2023/05/28 12:41:56;;;;;;;13.63;4.47;;;;;;;;;;5009106;28;20033;-80
2023/05/28 12:44:22;;;;;;;16.77;4.47;;;;;;;;;;5010613;28;20527;-79
2023/05/28 12:46:47;;;;;;;14.77;4.60;;;;;;;;;;5031939;28;20029;-80
2023/05/28 12:49:13;;;;;;;10.82;4.10;;;;;;;;;;5055743;28;20102;-80
2023/05/28 12:51:38;;;;;;;9.57;3.55;;;;;;;;;;5038249;28;20033;-81
2023/05/28 12:54:06;;;;;;;14.20;4.40;;;;;;;;;;5051243;28;20431;-80
2023/05/28 12:56:31;;;;;;;9.00;3.38;;;;;;;;;;5011143;28;20100;-80
2023/05/28 12:58:58;;;;;;;7.13;3.55;;;;;;;;;;5010883;28;20460;-79
2023/05/28 13:01:23;;;;;;;10.27;4.15;;;;;;;;;;5028910;28;20025;-79
2023/05/28 13:03:49;;;;;;;13.15;4.30;;;;;;;;;;5027473;28;20395;-80
2023/05/28 13:06:15;;;;;;;8.70;3.78;;;;;;;;;;5019398;28;20029;-80
2023/05/28 13:08:41;;;;;;;8.60;3.60;;;;;;;;;;5035516;28;20087;-81
2023/05/28 13:11:06;;;;;;;7.60;3.80;;;;;;;;;;5016840;28;20076;-82
2023/05/28 13:13:31;;;;;;;11.70;3.90;;;;;;;;;;5017472;28;20064;-80
2023/05/28 13:15:57;;;;;;;5.30;3.53;;;;;;;;;;5017207;28;20041;-80
2023/05/28 13:18:22;;;;;;;6.47;3.78;;;;;;;;;;5036559;28;20041;-80
2023/05/28 13:20:47;;;;;;;6.03;3.28;;;;;;;;;;5017443;28;20033;-81
2023/05/28 13:23:13;;;;;;;8.88;3.50;;;;;;;;;;5034766;28;20033;-80
2023/05/28 13:25:38;;;;;;;8.85;3.70;;;;;;;;;;5000031;28;20120;-80
2023/05/28 13:28:04;;;;;;;7.40;3.30;;;;;;;;;;5002275;28;20365;-81
2023/05/28 13:30:29;;;;;;;5.55;3.20;;;;;;;;;;5001329;28;20044;-80
2023/05/28 13:32:55;;;;;;;10.93;3.17;;;;;;;;;;4984966;28;20510;-80
2023/05/28 13:35:20;;;;;;;5.63;3.13;;;;;;;;;;5017398;28;20064;-80
2023/05/28 13:37:46;;;;;;;7.25;2.90;;;;;;;;;;5018369;28;20033;-81
2023/05/28 13:40:13;;;;;;;5.10;2.72;;;;;;;;;;5016919;28;20057;-80
2023/05/28 13:42:40;;;;;;;8.23;3.10;;;;;;;;;;5020108;28;20025;-80
2023/05/28 13:45:06;;;;;;;6.47;3.15;;;;;;;;;;5037576;28;20053;-80
2023/05/28 13:47:32;;;;;;;4.70;3.05;;;;;;;;;;5019775;28;20141;-81
2023/05/28 13:49:58;;;;;;;7.05;2.85;;;;;;;;;;5036725;28;20091;-80
2023/05/28 13:52:24;;;;;;;5.82;3.22;;;;;;;;;;5018549;28;20030;-81
2023/05/28 13:54:49;;;;;;;6.55;2.90;;;;;;;;;;5016624;28;20033;-80
2023/05/28 13:57:15;;;;;;;5.88;3.08;;;;;;;;;;5033518;28;20033;-82
2023/05/28 13:59:40;;;;;;;6.07;2.97;;;;;;;;;;5032739;28;20035;-81
2023/05/28 14:02:06;;;;;;;5.18;3.13;;;;;;;;;;5032797;28;20037;-82
2023/05/28 14:04:31;;;;;;;5.13;3.05;;;;;;;;;;4998871;28;20476;-82
2023/05/28 14:06:57;;;;;;;6.65;2.88;;;;;;;;;;5014884;28;20496;-83
2023/05/28 14:09:23;;;;;;;5.95;2.80;;;;;;;;;;5032649;28;20033;-80
2023/05/28 14:11:48;;;;;;;5.22;2.70;;;;;;;;;;4998334;28;20397;-80
2023/05/28 14:14:14;;;;;;;8.43;2.88;;;;;;;;;;5013582;28;20049;-80
2023/05/28 14:16:39;;;;;;;4.53;2.75;;;;;;;;;;5032746;28;20037;-80
2023/05/28 14:19:04;;;;;;;5.45;3.05;;;;;;;;;;5032536;28;20033;-81
2023/05/28 14:21:30;;;;;;;7.25;3.40;;;;;;;;;;5032662;28;20025;-83
2023/05/28 14:23:55;;;;;;;5.90;3.13;;;;;;;;;;4998378;28;20075;-82
2023/05/28 14:26:21;;;;;;;7.13;3.42;;;;;;;;;;5032421;28;20041;-82
2023/05/28 14:28:46;;;;;;;4.43;2.88;;;;;;;;;;5032352;28;20034;-82
2023/05/28 14:31:11;;;;;;;4.85;2.85;;;;;;;;;;4999787;28;20476;-81
2023/05/28 14:33:37;;;;;;;5.78;3.05;;;;;;;;;;5014929;28;20092;-79
2023/05/28 14:36:03;;;;;;;7.65;2.95;;;;;;;;;;5015017;28;20033;-81